首页
METAR-TAF:

METAR-TAF

机场 :

泰德·史蒂文斯安克雷奇國際機場

安克拉治, 阿拉斯加州, 美国

纬度: 61-10-28N, 经度: 149-59-46W, 海拔: 44米

当前天气观测

该预报发布于1小时和9分钟前的00:53 UTC
风速4节,风向南转南东
温度 11°C
湿度 58%
气压 998 hPa
能見度: 16.1公里
少量云层高于5500英尺
散云层高于7000英尺
散云层高于9500英尺
多云层高于15000英尺

METAR: PANC 220053Z 16004KT 10SM FEW055 SCT070 SCT095 BKN150 11/03 A2947 RMK AO2 SLP979 VIRGA S-W-NW T01060033

时间: 18:02 (02:02 UTC)

预报

该预报发布于2小时和4分钟前的23:58 UTC
预报有效从22日的 00点(UTC)到 23日的 06点(UTC)
风速9节,风向东南
能見度: 10公里
散云层高于4000英尺
阴天层高于7000英尺
附近有阵雨
从 22日的 0600点(UTC)
风速5节,风向南转南东
能見度: 10公里
散云层高于4000英尺
阴天层高于6000英尺
附近有阵雨
从 22日的 1200点(UTC)
风速6节,风向
能見度: 10公里
散云层高于7000英尺
多云层高于12000英尺

TAF: PANC 212358Z 2200/2306 14009KT P6SM VCSH SCT040 OVC070 FM220600 15005KT P6SM VCSH SCT040 OVC060 FM221200 01006KT P6SM SCT070 BKN120

超过4000个机场的气象观测和天气预报(METAR&TAF报告)。

可查询的气象台以黄色和红色小点在地图上表示。

将鼠标移到小点上方,可查看气象台名称。

然后点击查看天气观测和预报。

如需切换地图:点击带黑十字的绿色按钮放大地图;点击带横线的绿色按钮缩小地图;或者点击绿色箭头查看邻近地区的地图。


METAR-TAF: